Aérodrome :
LOGIN :

S'inscrire | Disclaimer

   EN    FR    IT 

 










Légende :    VFR   VFR Marginal   IFR   IFR Intensif   IFR Très Intensif
Visi : 
Plafond : 
>= 8 km
>= 3000ft
5 à 8 km
1000 à 3000 ft
1500m à 5 km
500 à 1000 ft
800 à 1500m
200 à 500 ft
< 800m
< 200 ft
Symboles :   Orages  Brouillard  Fortes neiges  Fortes précipitations  Vent > 20 kt
SIGMETs :   Divers  Orages  Givrage  Turbulence  Onde Orograph.  Cendres Volcan.






- Altitude de l'aérodrome : 2595 ft
- Code IATA : SLM


LESA - Salamanca Matacan

DERNIER METAR :
  • 130700Z 26011KT 230V290 9999 FEW020 SCT036 09/07 Q1017

METARs EXPIRÉS :
  • 130630Z 26016KT 9999 SCT029 SCT034 09/07 Q1017
  • 130600Z 26015KT 220V280 9999 FEW019 SCT033 09/07 Q1016
  • 130530Z AUTO 26019KT 9999 FEW024 BKN031 10/07 Q1016
  • 130500Z AUTO 26022KT 9999 BKN032 10/07 Q1015
  • 130430Z AUTO 26018KT 9999 FEW017 BKN036 10/08 Q1015

TAF TAF LESA
Valide du 13 à 06h jusqu'au 14 à 06h UTC


130500Z 1306/1406 26018KT 9999 FEW016 BKN022 TX11/1315Z TN07/1406Z
PROB30
TEMPO 1306/1313 4000 RA BR BKN008
TEMPO 1306/1318 26020G30KT



MET'MAP, la Météo Aéronautique d'un coup d'oeil ! - Copyright ORBIFLY Décembre 2007 - Disclaimer

ORBIFLY MET'MAP TEAM :

Programmation & Développement : Alexandra Zaïnal
Sur une idée originale de : Baudouin d'Aumeries
Assistance à la programmation : Marc-Olivier Méhu
Soutien technique & logistique : Manuel Goepfert

Contact : metmap@orbifly.com




SOURCES & CREDITS :

   NOAA